createdAt,value
2019-03-26T00:00:53.318Z,410.87
2019-03-26T00:01:53.380Z,410.48
2019-03-26T00:02:53.304Z,408.63
2019-03-26T00:04:05.207Z,410.25
2019-03-26T00:04:54.270Z,409.28
2019-03-26T00:05:53.268Z,408.10
2019-03-26T00:06:53.245Z,410.70
2019-03-26T00:07:53.269Z,408.71
2019-03-26T00:08:53.227Z,409.45
2019-03-26T00:09:53.231Z,408.19
2019-03-26T00:10:53.218Z,408.96
2019-03-26T00:11:53.197Z,409.15
2019-03-26T00:12:53.211Z,409.81
2019-03-26T00:13:53.185Z,407.74
2019-03-26T00:14:53.158Z,409.50
2019-03-26T00:15:53.156Z,409.37
2019-03-26T00:16:53.150Z,408.53
2019-03-26T00:17:53.167Z,410.43
2019-03-26T00:18:53.146Z,408.65
2019-03-26T00:19:53.112Z,407.89
2019-03-26T00:20:53.100Z,408.06
2019-03-26T00:21:53.106Z,408.83
2019-03-26T00:22:53.090Z,412.07
2019-03-26T00:23:53.072Z,408.32
2019-03-26T00:24:53.089Z,407.46
2019-03-26T00:25:53.042Z,410.09
2019-03-26T00:26:53.020Z,408.88
2019-03-26T00:27:53.018Z,410.09
2019-03-26T00:28:53.001Z,410.00
2019-03-26T00:29:53.006Z,409.12
2019-03-26T00:30:53.001Z,409.75
2019-03-26T00:31:52.988Z,408.41
2019-03-26T00:32:52.956Z,408.80
2019-03-26T00:33:52.960Z,408.78
2019-03-26T00:34:52.944Z,408.42
2019-03-26T00:35:52.956Z,408.66
2019-03-26T00:36:52.925Z,408.52
2019-03-26T00:37:52.900Z,408.79
2019-03-26T00:38:52.892Z,409.96
2019-03-26T00:39:52.899Z,408.13
2019-03-26T00:40:52.892Z,407.89
2019-03-26T00:41:52.903Z,408.48
2019-03-26T00:42:52.860Z,407.41
2019-03-26T00:43:52.867Z,408.28
2019-03-26T00:44:52.840Z,409.70
2019-03-26T00:45:52.829Z,407.45
2019-03-26T00:46:52.819Z,409.06
2019-03-26T00:47:52.829Z,409.77
2019-03-26T00:48:52.793Z,408.30
2019-03-26T00:49:52.779Z,408.03
2019-03-26T00:50:52.769Z,408.50
2019-03-26T00:51:52.760Z,407.83
2019-03-26T00:52:52.758Z,408.65
2019-03-26T00:53:52.743Z,409.06
2019-03-26T00:54:52.732Z,407.51
2019-03-26T00:55:52.736Z,410.64
2019-03-26T00:56:52.732Z,408.33
2019-03-26T00:57:52.687Z,407.64
2019-03-26T00:58:52.678Z,408.15
2019-03-26T00:59:52.667Z,409.85
2019-03-26T01:00:52.649Z,406.63
2019-03-26T01:01:52.678Z,407.34
2019-03-26T01:02:52.662Z,409.36
2019-03-26T01:03:54.964Z,407.98
2019-03-26T01:04:52.617Z,409.67
2019-03-26T01:05:52.619Z,407.32
2019-03-26T01:06:52.595Z,408.67
2019-03-26T01:07:52.585Z,407.40
2019-03-26T01:08:52.571Z,408.15
2019-03-26T01:09:52.564Z,407.01
2019-03-26T01:10:52.579Z,410.20
2019-03-26T01:11:52.532Z,408.30
2019-03-26T01:12:52.523Z,408.14
2019-03-26T01:13:52.535Z,408.57
2019-03-26T01:14:52.513Z,407.90
2019-03-26T01:15:52.531Z,409.22
2019-03-26T01:16:52.511Z,409.62
2019-03-26T01:17:52.464Z,406.97
2019-03-26T01:18:52.465Z,407.93
2019-03-26T01:19:52.465Z,408.93
2019-03-26T01:20:52.461Z,407.32
2019-03-26T01:21:52.456Z,407.23
2019-03-26T01:22:52.429Z,407.31
2019-03-26T01:23:52.422Z,408.30
2019-03-26T01:24:52.405Z,409.02
2019-03-26T01:25:52.392Z,408.74
2019-03-26T01:26:52.473Z,408.39
2019-03-26T01:27:52.381Z,408.03
2019-03-26T01:28:52.367Z,408.50
2019-03-26T01:29:52.361Z,408.45
2019-03-26T01:30:52.339Z,408.35
2019-03-26T01:31:52.329Z,407.30
2019-03-26T01:32:52.322Z,408.85
2019-03-26T01:33:52.308Z,407.76
2019-03-26T01:34:52.294Z,408.04
2019-03-26T01:35:52.279Z,408.69
2019-03-26T01:36:52.260Z,407.80
2019-03-26T01:37:52.295Z,408.30
2019-03-26T01:38:52.255Z,410.01
2019-03-26T01:39:52.241Z,406.84
2019-03-26T01:40:52.237Z,408.00
2019-03-26T01:41:52.213Z,407.72
2019-03-26T01:42:52.215Z,409.05
2019-03-26T01:43:52.219Z,408.36
2019-03-26T01:44:52.191Z,408.54
2019-03-26T01:45:52.179Z,408.23
2019-03-26T01:46:52.166Z,407.87
2019-03-26T01:47:52.220Z,407.13
2019-03-26T01:48:52.149Z,409.54
2019-03-26T01:49:52.131Z,408.39
2019-03-26T01:50:52.134Z,407.53
2019-03-26T01:51:52.119Z,408.66
2019-03-26T01:52:52.108Z,407.72
2019-03-26T01:53:52.081Z,407.60
2019-03-26T01:54:52.105Z,408.56
2019-03-26T01:55:52.059Z,409.67
2019-03-26T01:56:52.067Z,408.08
2019-03-26T01:57:52.042Z,407.52
2019-03-26T01:58:52.038Z,408.88
2019-03-26T01:59:52.044Z,407.82
2019-03-26T02:00:52.018Z,409.00
2019-03-26T02:01:52.018Z,408.39
2019-03-26T02:02:51.990Z,408.46
2019-03-26T02:03:51.981Z,406.71
2019-03-26T02:04:59.772Z,408.83
2019-03-26T02:05:52.967Z,408.95
2019-03-26T02:06:51.955Z,407.95
2019-03-26T02:07:51.945Z,408.96
2019-03-26T02:08:51.919Z,410.55
2019-03-26T02:09:51.921Z,408.40
2019-03-26T02:10:51.912Z,407.84
2019-03-26T02:11:51.895Z,408.12
2019-03-26T02:12:51.924Z,407.38
2019-03-26T02:13:51.898Z,410.47
2019-03-26T02:14:51.854Z,407.56
2019-03-26T02:15:51.853Z,407.38
2019-03-26T02:16:51.844Z,408.69
2019-03-26T02:17:51.847Z,408.10
2019-03-26T02:18:51.828Z,408.66
2019-03-26T02:19:51.876Z,410.12
2019-03-26T02:20:51.801Z,407.64
2019-03-26T02:21:51.780Z,407.16
2019-03-26T02:22:51.783Z,407.41
2019-03-26T02:23:51.790Z,408.36
2019-03-26T02:24:51.789Z,407.80
2019-03-26T02:25:51.746Z,406.92
2019-03-26T02:26:51.733Z,409.47
2019-03-26T02:27:51.715Z,406.84
2019-03-26T02:28:51.699Z,407.10
2019-03-26T02:29:51.703Z,408.42
2019-03-26T02:30:51.709Z,406.72
2019-03-26T02:31:51.701Z,407.39
2019-03-26T02:32:51.670Z,408.24
2019-03-26T02:33:51.674Z,406.43
2019-03-26T02:34:51.638Z,407.14
2019-03-26T02:35:51.625Z,409.06
2019-03-26T02:36:51.624Z,408.04
2019-03-26T02:37:51.639Z,407.23
2019-03-26T02:38:51.620Z,408.05
2019-03-26T02:39:51.593Z,406.18
2019-03-26T02:40:51.576Z,409.10
2019-03-26T02:41:51.575Z,407.03
2019-03-26T02:42:51.591Z,406.47
2019-03-26T02:43:51.557Z,407.40
2019-03-26T02:44:51.550Z,408.15
2019-03-26T02:45:51.521Z,406.84
2019-03-26T02:46:51.517Z,406.98
2019-03-26T02:47:51.520Z,406.92
2019-03-26T02:48:51.505Z,407.45
2019-03-26T02:49:51.497Z,408.71
2019-03-26T02:50:51.501Z,407.34
2019-03-26T02:51:51.463Z,406.87
2019-03-26T02:52:51.458Z,406.77
2019-03-26T02:53:51.437Z,406.36
2019-03-26T02:54:51.427Z,406.32
2019-03-26T02:55:51.447Z,405.75
2019-03-26T02:56:51.408Z,407.65
2019-03-26T02:57:51.397Z,407.08
2019-03-26T02:58:51.387Z,407.47
2019-03-26T02:59:51.395Z,406.21
2019-03-26T03:00:51.373Z,406.95
2019-03-26T03:01:51.366Z,408.02
2019-03-26T03:02:51.353Z,406.66
2019-03-26T03:03:51.356Z,406.37
2019-03-26T03:04:51.330Z,406.42
2019-03-26T03:05:51.342Z,406.92
2019-03-26T03:06:51.294Z,408.71
2019-03-26T03:07:51.283Z,407.69
2019-03-26T03:08:51.303Z,407.73
2019-03-26T03:09:51.282Z,406.20
2019-03-26T03:10:51.260Z,407.28
2019-03-26T03:11:51.288Z,406.72
2019-03-26T03:12:51.245Z,407.12
2019-03-26T03:13:51.228Z,407.87
2019-03-26T03:14:51.223Z,406.29
2019-03-26T03:15:51.230Z,406.71
2019-03-26T03:16:51.211Z,406.38
2019-03-26T03:17:51.168Z,408.36
2019-03-26T03:18:51.159Z,407.24
2019-03-26T03:19:51.162Z,407.29
2019-03-26T03:20:51.153Z,407.45
2019-03-26T03:21:51.158Z,408.91
2019-03-26T03:22:51.130Z,407.04
2019-03-26T03:23:51.125Z,407.05
2019-03-26T03:24:51.119Z,408.15
2019-03-26T03:25:51.101Z,406.98
2019-03-26T03:26:51.128Z,406.34
2019-03-26T03:27:51.074Z,406.59
2019-03-26T03:28:51.091Z,408.44
2019-03-26T03:29:51.052Z,406.57
2019-03-26T03:30:51.055Z,408.44
2019-03-26T03:31:51.060Z,407.39
2019-03-26T03:32:51.064Z,406.58
2019-03-26T03:33:51.061Z,407.37
2019-03-26T03:34:51.031Z,406.95
2019-03-26T03:35:52.935Z,406.59
2019-03-26T03:36:50.980Z,408.08
2019-03-26T03:37:50.960Z,407.79
2019-03-26T03:38:50.953Z,406.91
2019-03-26T03:39:50.963Z,406.63
2019-03-26T03:40:50.924Z,407.24
2019-03-26T03:41:50.948Z,408.12
2019-03-26T03:42:50.912Z,406.44
2019-03-26T03:43:50.902Z,407.30
2019-03-26T03:44:50.919Z,406.86
2019-03-26T03:45:50.890Z,406.93
2019-03-26T03:46:50.881Z,407.45
2019-03-26T03:47:50.886Z,410.04
2019-03-26T03:48:50.850Z,408.04
2019-03-26T03:49:50.857Z,407.58
2019-03-26T03:50:50.824Z,407.74
2019-03-26T03:51:50.826Z,407.19
2019-03-26T03:52:50.827Z,409.42
2019-03-26T03:53:50.815Z,407.74
2019-03-26T03:54:50.794Z,409.72
2019-03-26T03:55:50.801Z,407.25
2019-03-26T03:56:50.788Z,407.48
2019-03-26T03:57:52.811Z,409.66
2019-03-26T03:58:50.733Z,410.33
2019-03-26T03:59:50.744Z,410.69
2019-03-26T04:00:50.732Z,408.65
2019-03-26T04:01:50.704Z,406.75
2019-03-26T04:02:50.681Z,407.86
2019-03-26T04:03:50.700Z,408.72
2019-03-26T04:04:50.668Z,408.43
2019-03-26T04:06:07.824Z,408.71
2019-03-26T04:06:51.654Z,407.68
2019-03-26T04:07:50.685Z,406.67
2019-03-26T04:08:50.656Z,407.72
2019-03-26T04:09:50.613Z,408.49
2019-03-26T04:10:50.678Z,410.42
2019-03-26T04:11:50.600Z,407.62
2019-03-26T04:12:50.590Z,407.27
2019-03-26T04:13:50.584Z,408.71
2019-03-26T04:14:50.600Z,407.04
2019-03-26T04:15:50.549Z,407.39
2019-03-26T04:16:50.548Z,409.01
2019-03-26T04:17:50.541Z,407.56
2019-03-26T04:18:50.591Z,408.00
2019-03-26T04:19:50.517Z,407.77
2019-03-26T04:20:50.534Z,408.60
2019-03-26T04:21:50.522Z,407.36
2019-03-26T04:22:50.474Z,407.91
2019-03-26T04:23:50.468Z,409.10
2019-03-26T04:24:50.446Z,408.45
2019-03-26T04:25:50.470Z,408.58
2019-03-26T04:26:50.445Z,407.64
2019-03-26T04:27:50.472Z,409.58
2019-03-26T04:28:50.416Z,407.62
2019-03-26T04:29:50.392Z,408.81
2019-03-26T04:30:50.422Z,408.44
2019-03-26T04:31:50.400Z,409.06
2019-03-26T04:32:50.372Z,410.01
2019-03-26T04:33:50.364Z,410.26
2019-03-26T04:34:50.346Z,408.78
2019-03-26T04:35:50.346Z,409.47
2019-03-26T04:36:50.357Z,409.69
2019-03-26T04:37:50.330Z,409.00
2019-03-26T04:38:50.315Z,407.31
2019-03-26T04:39:50.300Z,409.14
2019-03-26T04:40:50.312Z,408.93
2019-03-26T04:41:50.295Z,408.21
2019-03-26T04:42:50.263Z,408.66
2019-03-26T04:43:50.253Z,409.17
2019-03-26T04:44:50.246Z,409.16
2019-03-26T04:45:50.242Z,408.33
2019-03-26T04:46:50.263Z,409.41
2019-03-26T04:47:50.203Z,410.15
2019-03-26T04:48:50.199Z,410.38
2019-03-26T04:49:50.245Z,408.95
2019-03-26T04:50:50.188Z,410.04
2019-03-26T04:51:50.174Z,409.77
2019-03-26T04:52:50.211Z,409.45
2019-03-26T04:53:50.142Z,409.39
2019-03-26T04:54:50.147Z,408.92
2019-03-26T04:55:50.122Z,410.51
2019-03-26T04:56:50.115Z,410.50
2019-03-26T04:57:50.148Z,408.23
2019-03-26T04:58:50.101Z,408.59
2019-03-26T04:59:50.091Z,408.34
2019-03-26T05:00:50.077Z,411.18
2019-03-26T05:01:50.059Z,409.80
2019-03-26T05:02:50.051Z,410.44
2019-03-26T05:03:50.073Z,409.28
2019-03-26T05:04:50.037Z,409.83
2019-03-26T05:05:50.012Z,409.19
2019-03-26T05:06:50.080Z,411.60
2019-03-26T05:07:49.991Z,409.62
2019-03-26T05:08:50.010Z,411.47
2019-03-26T05:09:49.980Z,408.56
2019-03-26T05:10:49.966Z,408.54
2019-03-26T05:11:49.948Z,409.56
2019-03-26T05:12:49.944Z,408.14
2019-03-26T05:13:49.937Z,413.03
2019-03-26T05:14:49.947Z,410.98
2019-03-26T05:15:49.909Z,410.88
2019-03-26T05:16:49.908Z,408.42
2019-03-26T05:17:49.899Z,410.17
2019-03-26T05:18:49.904Z,411.45
2019-03-26T05:19:49.930Z,411.64
2019-03-26T05:20:49.866Z,408.48
2019-03-26T05:21:49.839Z,409.92
2019-03-26T05:22:49.830Z,412.39
2019-03-26T05:23:51.918Z,410.20
2019-03-26T05:24:49.840Z,411.18
2019-03-26T05:25:49.815Z,409.36
2019-03-26T05:26:49.792Z,409.38
2019-03-26T05:27:49.785Z,411.62
2019-03-26T05:28:49.771Z,409.23
2019-03-26T05:29:49.754Z,409.37
2019-03-26T05:30:49.763Z,409.01
2019-03-26T05:31:49.726Z,410.12
2019-03-26T05:32:49.717Z,410.23
2019-03-26T05:33:49.720Z,408.75
2019-03-26T05:34:49.711Z,409.40
2019-03-26T05:35:51.647Z,410.16
2019-03-26T05:36:51.432Z,408.26
2019-03-26T05:37:49.676Z,411.82
2019-03-26T05:38:49.668Z,411.36
2019-03-26T05:39:49.657Z,408.39
2019-03-26T05:40:49.651Z,408.47
2019-03-26T05:41:49.630Z,408.80
2019-03-26T05:42:49.615Z,409.29
2019-03-26T05:43:49.603Z,410.33
2019-03-26T05:44:49.586Z,409.18
2019-03-26T05:45:49.619Z,410.38
2019-03-26T05:46:49.573Z,408.71
2019-03-26T05:47:49.576Z,411.59
2019-03-26T05:48:49.558Z,411.03
2019-03-26T05:49:49.531Z,408.69
2019-03-26T05:50:49.521Z,410.09
2019-03-26T05:51:49.550Z,409.18
2019-03-26T05:52:49.512Z,408.13
2019-03-26T05:53:49.495Z,409.19
2019-03-26T05:54:49.506Z,408.75
2019-03-26T05:55:49.473Z,407.60
2019-03-26T05:56:49.487Z,410.90
2019-03-26T05:57:49.459Z,408.42
2019-03-26T05:58:49.451Z,409.44
2019-03-26T05:59:49.435Z,408.99
2019-03-26T06:00:49.449Z,409.07
2019-03-26T06:01:49.448Z,410.66
2019-03-26T06:02:49.393Z,409.31
2019-03-26T06:03:49.385Z,412.77
2019-03-26T06:04:49.371Z,409.82
2019-03-26T06:05:49.382Z,408.75
2019-03-26T06:06:49.364Z,409.14
2019-03-26T06:07:49.361Z,408.37
2019-03-26T06:08:49.333Z,408.85
2019-03-26T06:09:49.326Z,409.47
2019-03-26T06:10:49.314Z,408.83
2019-03-26T06:11:49.318Z,409.87
2019-03-26T06:12:50.411Z,409.75
2019-03-26T06:13:49.269Z,410.78
2019-03-26T06:14:49.268Z,409.70
2019-03-26T06:15:49.255Z,410.75
2019-03-26T06:16:49.244Z,410.23
2019-03-26T06:17:49.240Z,410.14
2019-03-26T06:18:49.252Z,410.17
2019-03-26T06:19:49.226Z,409.05
2019-03-26T06:20:49.205Z,409.55
2019-03-26T06:21:49.193Z,411.25
2019-03-26T06:22:49.211Z,408.65
2019-03-26T06:23:49.178Z,409.94
2019-03-26T06:24:49.163Z,410.87
2019-03-26T06:25:49.140Z,410.78
2019-03-26T06:26:49.128Z,410.10
2019-03-26T06:27:49.123Z,409.82
2019-03-26T06:28:49.126Z,409.91
2019-03-26T06:29:49.111Z,410.12
2019-03-26T06:30:49.097Z,408.81
2019-03-26T06:31:49.086Z,412.32
2019-03-26T06:32:49.075Z,411.73
2019-03-26T06:33:49.086Z,411.70
2019-03-26T06:34:49.049Z,412.30
2019-03-26T06:35:49.030Z,410.80
2019-03-26T06:36:49.024Z,412.57
2019-03-26T06:37:49.022Z,409.84
2019-03-26T06:38:49.032Z,411.92
2019-03-26T06:39:49.014Z,410.02
2019-03-26T06:40:48.978Z,411.34
2019-03-26T06:41:48.995Z,411.53
2019-03-26T06:42:48.981Z,410.17
2019-03-26T06:43:48.954Z,411.20
2019-03-26T06:44:48.971Z,411.62
2019-03-26T06:45:48.923Z,412.71
2019-03-26T06:46:48.908Z,410.33
2019-03-26T06:47:48.901Z,410.16
2019-03-26T06:48:48.895Z,410.68
2019-03-26T06:49:48.885Z,410.83
2019-03-26T06:50:48.892Z,412.80
2019-03-26T06:51:48.870Z,410.64
2019-03-26T06:52:48.858Z,411.17
2019-03-26T06:53:48.834Z,410.47
2019-03-26T06:54:51.514Z,412.00
2019-03-26T06:55:48.844Z,410.68
2019-03-26T06:56:48.805Z,411.00
2019-03-26T06:57:48.784Z,414.37
2019-03-26T06:58:48.778Z,411.32
2019-03-26T06:59:48.771Z,411.56
2019-03-26T07:00:48.805Z,411.64
2019-03-26T07:01:48.758Z,411.13
2019-03-26T07:02:48.757Z,411.75
2019-03-26T07:03:48.726Z,410.51
2019-03-26T07:04:48.743Z,410.70
2019-03-26T07:05:48.734Z,411.31
2019-03-26T07:06:48.700Z,411.75
2019-03-26T07:07:48.687Z,411.75
2019-03-26T07:08:48.670Z,411.70
2019-03-26T07:09:48.672Z,410.88
2019-03-26T07:10:48.682Z,411.64
2019-03-26T07:11:48.639Z,411.14
2019-03-26T07:12:48.630Z,411.62
2019-03-26T07:13:48.633Z,412.66
2019-03-26T07:14:48.613Z,411.32
2019-03-26T07:15:48.625Z,411.68
2019-03-26T07:16:48.612Z,410.88
2019-03-26T07:17:48.586Z,410.22
2019-03-26T07:18:48.563Z,410.43
2019-03-26T07:19:48.545Z,411.53
2019-03-26T07:20:48.541Z,410.22
2019-03-26T07:21:49.807Z,409.69
2019-03-26T07:22:48.521Z,411.12
2019-03-26T07:23:48.538Z,411.40
2019-03-26T07:24:48.523Z,410.31
2019-03-26T07:25:48.482Z,412.51
2019-03-26T07:26:48.507Z,410.75
2019-03-26T07:27:48.474Z,411.35
2019-03-26T07:28:48.463Z,412.04
2019-03-26T07:29:48.444Z,412.19
2019-03-26T07:30:48.442Z,411.47
2019-03-26T07:31:48.415Z,411.10
2019-03-26T07:32:48.426Z,411.08
2019-03-26T07:33:48.402Z,412.07
2019-03-26T07:34:48.394Z,411.95
2019-03-26T07:35:48.388Z,412.35
2019-03-26T07:36:48.372Z,414.68
2019-03-26T07:37:48.386Z,412.75
2019-03-26T07:38:48.340Z,412.21
2019-03-26T07:39:48.332Z,413.57
2019-03-26T07:40:48.325Z,412.00
2019-03-26T07:41:48.324Z,411.82
2019-03-26T07:42:48.313Z,412.15
2019-03-26T07:43:48.306Z,412.14
2019-03-26T07:44:48.284Z,412.07
2019-03-26T07:45:48.273Z,413.24
2019-03-26T07:46:48.271Z,413.88
2019-03-26T07:47:48.252Z,412.88
2019-03-26T07:48:48.256Z,414.99
2019-03-26T07:49:48.214Z,412.03
2019-03-26T07:50:48.219Z,412.21
2019-03-26T07:51:48.193Z,415.02
2019-03-26T07:52:48.186Z,415.36
2019-03-26T07:53:48.213Z,412.92
2019-03-26T07:54:48.174Z,413.46
2019-03-26T07:55:48.171Z,415.95
2019-03-26T07:56:48.154Z,413.71
2019-03-26T07:57:48.129Z,415.35
2019-03-26T07:58:48.134Z,414.88
2019-03-26T07:59:48.148Z,412.05
2019-03-26T08:00:48.108Z,411.90
2019-03-26T08:01:48.086Z,409.43
2019-03-26T08:02:48.078Z,411.04
2019-03-26T08:03:48.068Z,411.29
2019-03-26T08:04:48.086Z,410.74
2019-03-26T08:05:48.054Z,409.59
2019-03-26T08:06:48.043Z,409.98
2019-03-26T08:07:57.793Z,412.70
2019-03-26T08:08:49.038Z,410.25
2019-03-26T08:09:47.996Z,412.70
2019-03-26T08:10:48.009Z,412.14
2019-03-26T08:11:47.979Z,411.17
2019-03-26T08:12:47.983Z,408.60
2019-03-26T08:13:48.078Z,411.44
2019-03-26T08:14:47.993Z,412.57
2019-03-26T08:15:47.980Z,408.09
2019-03-26T08:16:47.951Z,413.00
2019-03-26T08:17:47.921Z,411.94
2019-03-26T08:18:47.910Z,412.36
2019-03-26T08:19:47.915Z,411.91
2019-03-26T08:20:47.887Z,410.33
2019-03-26T08:21:47.896Z,411.55
2019-03-26T08:22:47.855Z,410.70
2019-03-26T08:23:47.872Z,411.62
2019-03-26T08:24:47.827Z,410.17
2019-03-26T08:25:47.842Z,411.33
2019-03-26T08:26:47.848Z,412.10
2019-03-26T08:27:47.806Z,408.66
2019-03-26T08:28:47.826Z,410.64
2019-03-26T08:29:47.774Z,413.97
2019-03-26T08:30:50.202Z,410.34
2019-03-26T08:31:47.758Z,407.74
2019-03-26T08:32:47.757Z,409.89
2019-03-26T08:33:47.741Z,411.61
2019-03-26T08:34:47.737Z,407.80
2019-03-26T08:35:47.708Z,411.04
2019-03-26T08:36:47.701Z,408.98
2019-03-26T08:37:47.723Z,411.27
2019-03-26T08:38:47.681Z,408.62
2019-03-26T08:39:47.674Z,409.50
2019-03-26T08:40:47.771Z,408.37
2019-03-26T08:41:47.659Z,407.04
2019-03-26T08:42:47.637Z,412.27
2019-03-26T08:43:47.643Z,414.68
2019-03-26T08:44:47.606Z,408.75
2019-03-26T08:45:47.610Z,404.30
2019-03-26T08:46:47.598Z,408.63
2019-03-26T08:47:47.578Z,407.52
2019-03-26T08:48:47.569Z,408.03
2019-03-26T08:49:47.605Z,407.09
2019-03-26T08:50:47.556Z,406.13
2019-03-26T08:51:47.562Z,405.97
2019-03-26T08:52:47.531Z,406.94
2019-03-26T08:53:47.512Z,406.93
2019-03-26T08:54:47.534Z,407.44
2019-03-26T08:55:47.492Z,409.51
2019-03-26T08:56:47.478Z,407.30
2019-03-26T08:57:47.473Z,407.65
2019-03-26T08:58:47.468Z,410.88
2019-03-26T08:59:47.468Z,408.98
2019-03-26T09:00:47.471Z,409.68
2019-03-26T09:01:47.420Z,408.38
2019-03-26T09:02:47.416Z,411.46
2019-03-26T09:03:47.412Z,409.95
2019-03-26T09:04:47.420Z,411.46
2019-03-26T09:05:47.400Z,411.56
2019-03-26T09:06:47.369Z,411.13
2019-03-26T09:07:47.353Z,413.33
2019-03-26T09:08:47.343Z,412.13
2019-03-26T09:09:47.353Z,408.85
2019-03-26T09:10:52.056Z,405.39
2019-03-26T09:11:47.322Z,411.82
2019-03-26T09:12:47.328Z,410.14
2019-03-26T09:13:47.289Z,412.02
2019-03-26T09:14:47.296Z,411.38
2019-03-26T09:15:47.281Z,405.75
2019-03-26T09:16:47.262Z,410.86
2019-03-26T09:17:47.279Z,411.90
2019-03-26T09:18:47.264Z,409.04
2019-03-26T09:19:47.220Z,407.22
2019-03-26T09:20:47.217Z,407.40
2019-03-26T09:21:47.228Z,409.74
2019-03-26T09:22:47.201Z,410.24
2019-03-26T09:23:47.197Z,409.55
2019-03-26T09:24:47.184Z,409.36
2019-03-26T09:25:47.177Z,410.26
2019-03-26T09:26:47.158Z,408.59
2019-03-26T09:27:47.143Z,410.36
2019-03-26T09:28:47.948Z,409.98
2019-03-26T09:29:47.124Z,411.34
2019-03-26T09:30:47.162Z,410.56
2019-03-26T09:31:47.125Z,407.85
2019-03-26T09:32:47.098Z,411.87
2019-03-26T09:33:47.074Z,412.64
2019-03-26T09:34:47.050Z,408.68
2019-03-26T09:35:47.075Z,408.71
2019-03-26T09:36:47.083Z,410.32
2019-03-26T09:37:47.030Z,411.42
2019-03-26T09:38:47.013Z,409.77
2019-03-26T09:39:47.011Z,410.30
2019-03-26T09:40:46.984Z,409.76
2019-03-26T09:41:47.011Z,411.61
2019-03-26T09:42:46.987Z,413.72
2019-03-26T09:43:46.973Z,406.70
2019-03-26T09:44:46.959Z,409.63
2019-03-26T09:45:46.937Z,411.54
2019-03-26T09:46:46.946Z,412.30
2019-03-26T09:47:46.932Z,412.29
2019-03-26T09:48:46.914Z,411.66
2019-03-26T09:49:46.909Z,411.45
2019-03-26T09:50:46.891Z,410.11
2019-03-26T09:51:46.883Z,411.11
2019-03-26T09:52:46.875Z,410.91
2019-03-26T09:53:46.867Z,411.17
2019-03-26T09:54:46.839Z,409.74
2019-03-26T09:55:46.837Z,411.42
2019-03-26T09:56:46.827Z,410.33
2019-03-26T09:57:46.838Z,413.17
2019-03-26T09:58:46.806Z,411.93
2019-03-26T09:59:46.806Z,408.33
2019-03-26T10:00:46.888Z,414.07
2019-03-26T10:01:46.793Z,412.12
2019-03-26T10:02:46.764Z,413.56
2019-03-26T10:03:46.777Z,411.16
2019-03-26T10:04:46.748Z,413.32
2019-03-26T10:05:46.726Z,414.88
2019-03-26T10:06:46.703Z,415.10
2019-03-26T10:07:46.722Z,413.52
2019-03-26T10:08:52.464Z,421.66
2019-03-26T10:09:47.679Z,416.19
2019-03-26T10:10:46.664Z,412.98
2019-03-26T10:11:46.652Z,411.45
2019-03-26T10:12:46.663Z,412.65
2019-03-26T10:13:46.661Z,412.79
2019-03-26T10:14:46.623Z,414.40
2019-03-26T10:15:46.617Z,411.36
2019-03-26T10:16:46.601Z,415.30
2019-03-26T10:17:46.576Z,414.77
2019-03-26T10:18:46.588Z,409.19
2019-03-26T10:19:46.567Z,410.06
2019-03-26T10:20:46.558Z,410.64
2019-03-26T10:21:46.574Z,409.64
2019-03-26T10:22:46.551Z,413.24
2019-03-26T10:23:46.524Z,413.48
2019-03-26T10:24:46.519Z,413.99
2019-03-26T10:25:46.511Z,412.38
2019-03-26T10:26:46.493Z,411.80
2019-03-26T10:27:46.513Z,412.97
2019-03-26T10:28:46.494Z,409.03
2019-03-26T10:29:46.488Z,409.73
2019-03-26T10:30:46.453Z,414.09
2019-03-26T10:31:46.434Z,412.15
2019-03-26T10:32:46.420Z,411.33
2019-03-26T10:33:46.447Z,410.39
2019-03-26T10:34:46.418Z,412.08
2019-03-26T10:35:46.395Z,410.80
2019-03-26T10:36:46.388Z,410.57
2019-03-26T10:37:46.377Z,410.73
2019-03-26T10:38:46.356Z,416.62
2019-03-26T10:39:46.379Z,408.92
2019-03-26T10:40:46.342Z,410.45
2019-03-26T10:41:46.326Z,412.12
2019-03-26T10:42:46.307Z,411.77
2019-03-26T10:43:46.312Z,412.58
2019-03-26T10:44:46.314Z,411.71
2019-03-26T10:45:46.287Z,414.52
2019-03-26T10:46:46.287Z,414.05
2019-03-26T10:47:46.256Z,415.49
2019-03-26T10:48:46.248Z,417.75
2019-03-26T10:49:46.226Z,417.08
2019-03-26T10:50:46.249Z,416.05
2019-03-26T10:51:46.223Z,411.25
2019-03-26T10:52:46.207Z,411.10
2019-03-26T10:53:46.205Z,414.80
2019-03-26T10:54:46.188Z,417.43
2019-03-26T10:55:46.192Z,411.81
2019-03-26T10:56:46.155Z,420.43
2019-03-26T10:57:46.224Z,412.73
2019-03-26T10:58:46.139Z,412.05
2019-03-26T10:59:46.156Z,417.61
2019-03-26T11:00:46.157Z,415.19
2019-03-26T11:01:46.099Z,404.69
2019-03-26T11:02:46.103Z,418.71
2019-03-26T11:03:46.077Z,411.77
2019-03-26T11:04:46.067Z,411.21
2019-03-26T11:05:46.068Z,413.09
2019-03-26T11:06:46.071Z,410.44
2019-03-26T11:07:46.051Z,411.39
2019-03-26T11:08:46.028Z,413.44
2019-03-26T11:09:46.015Z,414.69
2019-03-26T11:10:46.004Z,411.44
2019-03-26T11:11:46.021Z,413.71
2019-03-26T11:12:45.986Z,413.60
2019-03-26T11:13:45.961Z,412.79
2019-03-26T11:14:45.989Z,411.73
2019-03-26T11:15:45.952Z,412.96
2019-03-26T11:16:45.938Z,411.64
2019-03-26T11:17:45.946Z,413.78
2019-03-26T11:18:45.924Z,412.34
2019-03-26T11:19:46.549Z,412.75
2019-03-26T11:20:45.920Z,409.31
2019-03-26T11:21:45.890Z,411.32
2019-03-26T11:22:45.889Z,411.30
2019-03-26T11:23:45.875Z,415.67
2019-03-26T11:24:45.871Z,414.02
2019-03-26T11:25:45.844Z,410.95
2019-03-26T11:26:45.837Z,411.43
2019-03-26T11:27:45.832Z,411.77
2019-03-26T11:28:45.855Z,413.97
2019-03-26T11:29:45.826Z,413.20
2019-03-26T11:30:45.795Z,412.38
2019-03-26T11:31:45.778Z,414.32
2019-03-26T11:32:45.809Z,413.47
2019-03-26T11:33:45.743Z,411.92
2019-03-26T11:34:45.733Z,411.93
2019-03-26T11:35:45.734Z,412.78
2019-03-26T11:36:45.719Z,412.17
2019-03-26T11:37:45.702Z,412.06
2019-03-26T11:38:45.709Z,413.68
2019-03-26T11:39:45.684Z,412.90
2019-03-26T11:40:45.680Z,412.59
2019-03-26T11:41:45.655Z,412.30
2019-03-26T11:42:45.655Z,411.00
2019-03-26T11:43:45.673Z,412.87
2019-03-26T11:44:45.631Z,411.09
2019-03-26T11:45:45.621Z,411.51
2019-03-26T11:46:45.604Z,412.99
2019-03-26T11:47:45.782Z,411.31
2019-03-26T11:48:45.795Z,411.61
2019-03-26T11:49:45.581Z,411.94
2019-03-26T11:50:45.567Z,410.89
2019-03-26T11:51:45.562Z,414.70
2019-03-26T11:52:45.567Z,412.78
2019-03-26T11:53:45.870Z,413.16
2019-03-26T11:54:45.513Z,410.65
2019-03-26T11:55:45.509Z,413.28
2019-03-26T11:56:45.489Z,412.14
2019-03-26T11:57:46.016Z,412.36
2019-03-26T11:58:46.023Z,410.26
2019-03-26T11:59:45.457Z,414.13
2019-03-26T12:00:45.451Z,413.36
2019-03-26T12:01:45.463Z,413.24
2019-03-26T12:02:45.436Z,412.62
2019-03-26T12:03:45.431Z,412.27
2019-03-26T12:04:45.428Z,413.76
2019-03-26T12:05:45.396Z,411.97
2019-03-26T12:06:45.378Z,414.09
2019-03-26T12:07:45.377Z,413.48
2019-03-26T12:08:45.373Z,415.25
2019-03-26T12:09:46.774Z,413.97
2019-03-26T12:10:45.344Z,414.06
2019-03-26T12:11:45.334Z,414.64
2019-03-26T12:12:45.319Z,414.02
2019-03-26T12:13:45.323Z,417.68
2019-03-26T12:14:45.311Z,417.14
2019-03-26T12:15:45.289Z,413.44
2019-03-26T12:16:45.277Z,414.16
2019-03-26T12:17:45.256Z,415.79
2019-03-26T12:18:45.258Z,418.25
2019-03-26T12:19:45.251Z,413.64
2019-03-26T12:20:45.222Z,417.81
2019-03-26T12:21:45.230Z,414.65
2019-03-26T12:22:45.215Z,417.53
2019-03-26T12:23:45.203Z,413.20
2019-03-26T12:24:45.213Z,413.41
2019-03-26T12:25:45.178Z,415.68
2019-03-26T12:26:45.159Z,416.46
2019-03-26T12:27:45.154Z,413.97
2019-03-26T12:28:45.155Z,414.27